Time;durP1;ratioP1;P1;durP2;ratioP2;P2;SDS_P1;SDS_P2;PMS_P1;PMS_P2;Temp;Humidity;BMP_temperature;BMP_pressure;BME280_temperature;BME280_humidity;BME280_pressure;Samples;Min_cycle;Max_cycle;Signal;HPM_P1;HPM_P2
2023/08/21 00:00:15;;;;;;;52.72;14.23;;;17.00;99.90;;;;;;4824214;29;20499;-70
2023/08/21 00:02:41;;;;;;;31.80;12.15;;;16.90;99.90;;;;;;4832249;29;20046;-62
2023/08/21 00:05:09;;;;;;;38.30;11.48;;;16.90;99.90;;;;;;4831770;29;20524;-61
2023/08/21 00:07:36;;;;;;;46.90;13.05;;;16.90;99.90;;;;;;4821863;29;20050;-66
2023/08/21 00:10:03;;;;;;;37.33;13.82;;;16.80;99.90;;;;;;4830485;29;20502;-67
2023/08/21 00:12:30;;;;;;;49.75;13.77;;;16.80;99.90;;;;;;4825288;29;20107;-69
2023/08/21 00:14:57;;;;;;;29.10;11.15;;;16.80;99.90;;;;;;4823435;29;20149;-61
2023/08/21 00:17:24;;;;;;;39.97;10.00;;;16.70;99.90;;;;;;4828934;29;20077;-68
2023/08/21 00:19:51;;;;;;;27.05;8.73;;;16.70;99.90;;;;;;4829275;29;20054;-71
2023/08/21 00:22:18;;;;;;;39.67;10.70;;;16.70;99.90;;;;;;4825214;29;20138;-65
2023/08/21 00:24:45;;;;;;;26.17;10.98;;;16.70;99.90;;;;;;4824014;29;20118;-63
2023/08/21 00:27:12;;;;;;;26.05;9.18;;;16.70;99.90;;;;;;4827660;29;20126;-64
2023/08/21 00:29:38;;;;;;;47.83;13.65;;;16.70;99.90;;;;;;4825699;29;20046;-63
2023/08/21 00:32:06;;;;;;;43.65;14.77;;;16.60;99.90;;;;;;4825315;29;20037;-65
2023/08/21 00:34:33;;;;;;;37.90;13.73;;;16.60;99.90;;;;;;4813502;29;20057;-64
2023/08/21 00:37:00;;;;;;;46.33;12.38;;;16.60;99.90;;;;;;4821803;29;20157;-67
2023/08/21 00:39:27;;;;;;;19.00;7.72;;;16.60;99.90;;;;;;4817953;29;20062;-64
2023/08/21 00:41:54;;;;;;;23.05;6.28;;;16.60;99.90;;;;;;4821124;29;20068;-71
2023/08/21 00:44:21;;;;;;;42.80;7.90;;;16.60;99.90;;;;;;4826063;29;20116;-67
2023/08/21 00:46:49;;;;;;;19.27;5.05;;;16.50;99.90;;;;;;4815141;29;20343;-63
2023/08/21 00:49:16;;;;;;;6.05;3.53;;;16.50;99.90;;;;;;4815204;29;20123;-68
2023/08/21 00:51:44;;;;;;;8.07;4.60;;;16.50;99.90;;;;;;4822901;29;20091;-62
2023/08/21 00:54:11;;;;;;;11.32;4.95;;;16.50;99.90;;;;;;4810296;29;20054;-63
2023/08/21 00:56:38;;;;;;;5.90;3.72;;;16.50;99.90;;;;;;4828793;29;20118;-61
2023/08/21 00:59:05;;;;;;;4.05;3.65;;;16.40;99.90;;;;;;4825397;29;20061;-66
2023/08/21 01:01:34;;;;;;;70.97;10.60;;;16.40;99.90;;;;;;4831004;29;20054;-70
2023/08/21 01:04:01;;;;;;;11.25;4.97;;;16.40;99.90;;;;;;4822291;29;20077;-66
2023/08/21 01:06:29;;;;;;;21.00;5.22;;;16.40;99.90;;;;;;4814133;29;20563;-66
2023/08/21 01:09:01;;;;;;;5.38;3.72;;;16.40;99.90;;;;;;4826592;29;20045;-72
2023/08/21 01:11:36;;;;;;;5.13;4.68;;;16.40;99.90;;;;;;4822224;29;20054;-64
2023/08/21 01:14:23;;;;;;;4.57;4.18;;;16.30;99.90;;;;;;4820318;29;20058;-65
2023/08/21 01:16:55;;;;;;;3.92;3.63;;;16.40;99.90;;;;;;4824678;29;20053;-68
2023/08/21 01:19:52;;;;;;;2.47;2.28;;;16.40;99.90;;;;;;4824932;29;20061;-63
2023/08/21 01:22:26;;;;;;;4.13;3.75;;;16.30;99.90;;;;;;4813730;29;20490;-68
2023/08/21 01:24:54;;;;;;;5.93;5.15;;;16.30;99.90;;;;;;4830394;29;20058;-65
2023/08/21 01:27:22;;;;;;;7.00;6.30;;;16.30;99.90;;;;;;4811143;29;20097;-65
2023/08/21 01:29:49;;;;;;;11.63;9.02;;;16.40;99.90;;;;;;4822655;29;20066;-64
2023/08/21 01:32:57;;;;;;;9.57;8.57;;;16.40;99.90;;;;;;4823242;29;20057;-66
2023/08/21 01:35:25;;;;;;;10.15;9.05;;;16.40;99.90;;;;;;4827371;29;20045;-65
2023/08/21 01:37:52;;;;;;;8.18;7.38;;;16.40;99.90;;;;;;4826220;29;20512;-63
2023/08/21 01:40:24;;;;;;;8.65;6.68;;;16.40;99.90;;;;;;4826029;29;20583;-66
2023/08/21 01:42:52;;;;;;;7.28;6.47;;;16.40;99.90;;;;;;4824742;29;20081;-65
2023/08/21 01:45:20;;;;;;;7.22;6.53;;;16.40;99.90;;;;;;4824813;29;20054;-63
2023/08/21 01:47:47;;;;;;;7.97;6.72;;;16.50;99.90;;;;;;4821930;29;20118;-63
2023/08/21 01:50:14;;;;;;;8.90;8.00;;;16.40;99.90;;;;;;4827300;29;20600;-65
2023/08/21 01:52:40;;;;;;;8.50;7.45;;;16.50;99.90;;;;;;4824444;29;20058;-68
2023/08/21 01:55:08;;;;;;;6.13;5.53;;;16.50;99.90;;;;;;4814815;29;20084;-65
2023/08/21 01:57:35;;;;;;;6.68;5.93;;;16.50;99.90;;;;;;4824113;29;20126;-68
2023/08/21 02:00:04;;;;;;;9.30;8.43;;;16.50;99.90;;;;;;4821780;29;20054;-63
2023/08/21 02:02:39;;;;;;;8.32;7.13;;;16.50;99.90;;;;;;4823173;29;20069;-70
2023/08/21 02:05:07;;;;;;;9.05;8.13;;;16.50;99.90;;;;;;4825391;29;20904;-62
2023/08/21 02:07:34;;;;;;;9.40;7.97;;;16.50;99.90;;;;;;4824402;29;20046;-66
2023/08/21 02:10:01;;;;;;;7.60;6.53;;;16.50;99.90;;;;;;4818549;29;20081;-65
2023/08/21 02:12:28;;;;;;;6.95;6.25;;;16.50;99.90;;;;;;4825949;29;20706;-68
2023/08/21 02:14:55;;;;;;;9.23;7.65;;;16.50;99.90;;;;;;4823295;29;20077;-70
2023/08/21 02:17:22;;;;;;;9.88;8.27;;;16.50;99.90;;;;;;4825953;29;20173;-65
2023/08/21 02:19:48;;;;;;;7.10;6.50;;;16.50;99.90;;;;;;4818961;29;20153;-69
2023/08/21 02:22:15;;;;;;;8.32;7.53;;;16.50;99.90;;;;;;4827362;29;20153;-65
2023/08/21 02:24:42;;;;;;;8.38;7.57;;;16.50;99.90;;;;;;4824453;29;20046;-65
2023/08/21 02:27:09;;;;;;;9.75;7.47;;;16.50;99.90;;;;;;4807188;29;20141;-66
2023/08/21 02:29:38;;;;;;;7.32;6.38;;;16.50;99.90;;;;;;4807068;29;20050;-68
2023/08/21 02:32:05;;;;;;;9.02;6.50;;;16.50;99.90;;;;;;4821743;29;20058;-70
2023/08/21 02:34:32;;;;;;;7.90;7.10;;;16.50;99.90;;;;;;4822354;29;20478;-65
2023/08/21 02:36:59;;;;;;;6.72;6.07;;;16.50;99.90;;;;;;4827638;29;20496;-68
2023/08/21 02:39:28;;;;;;;7.15;6.47;;;16.50;99.90;;;;;;4824188;29;20132;-74
2023/08/21 02:41:55;;;;;;;7.15;6.43;;;16.50;99.90;;;;;;4827726;29;20053;-66
2023/08/21 02:44:21;;;;;;;7.05;6.35;;;16.50;99.90;;;;;;4827097;29;20099;-68
2023/08/21 02:46:48;;;;;;;7.65;6.30;;;16.50;99.90;;;;;;4825764;29;20108;-69
2023/08/21 02:49:15;;;;;;;8.80;7.63;;;16.60;99.90;;;;;;4831155;29;20057;-62
2023/08/21 02:51:42;;;;;;;8.10;7.40;;;16.50;99.90;;;;;;4825913;29;20070;-64
2023/08/21 02:54:10;;;;;;;7.03;5.78;;;16.50;99.90;;;;;;4827316;29;20045;-61
2023/08/21 02:56:37;;;;;;;7.57;6.88;;;16.50;99.90;;;;;;4825809;29;20521;-71
2023/08/21 02:59:04;;;;;;;6.18;5.60;;;16.50;99.90;;;;;;4827072;29;20046;-69
2023/08/21 03:01:31;;;;;;;6.82;6.13;;;16.50;99.90;;;;;;4824880;29;20490;-70
2023/08/21 03:03:58;;;;;;;6.72;5.93;;;16.50;99.90;;;;;;4823564;29;20140;-69
2023/08/21 03:06:25;;;;;;;7.18;6.43;;;16.50;99.90;;;;;;4825858;29;20099;-65
2023/08/21 03:08:53;;;;;;;7.18;6.38;;;16.50;99.90;;;;;;4824414;29;20098;-69
2023/08/21 03:11:20;;;;;;;8.73;6.60;;;16.50;99.90;;;;;;4827390;29;20099;-69
2023/08/21 03:13:47;;;;;;;8.68;7.28;;;16.60;99.90;;;;;;4825297;29;20512;-69
2023/08/21 03:16:14;;;;;;;8.05;6.85;;;16.60;99.90;;;;;;4822768;29;20057;-65
2023/08/21 03:18:58;;;;;;;7.82;6.78;;;16.60;99.90;;;;;;4825363;29;20049;-67
2023/08/21 03:21:27;;;;;;;7.93;6.35;;;16.50;99.90;;;;;;4826070;29;20712;-62
2023/08/21 03:23:57;;;;;;;7.82;6.25;;;16.50;99.90;;;;;;4802427;29;20054;-68
2023/08/21 03:26:26;;;;;;;8.63;7.60;;;16.60;99.90;;;;;;4823980;29;20065;-66
2023/08/21 03:28:54;;;;;;;8.30;7.43;;;16.60;99.90;;;;;;4824624;29;20054;-62
2023/08/21 03:31:21;;;;;;;7.03;6.32;;;16.60;99.90;;;;;;4824977;29;20106;-66
2023/08/21 03:33:48;;;;;;;6.95;6.25;;;16.60;99.90;;;;;;4823322;29;20057;-63
2023/08/21 03:36:19;;;;;;;7.03;6.32;;;16.60;99.90;;;;;;4824495;29;20305;-67
2023/08/21 03:38:46;;;;;;;6.35;5.75;;;16.60;99.90;;;;;;4818365;29;20057;-70
2023/08/21 03:41:13;;;;;;;7.30;6.60;;;16.60;99.90;;;;;;4820423;29;20046;-68
2023/08/21 03:43:40;;;;;;;7.38;6.70;;;16.60;99.90;;;;;;4825543;29;20061;-69
2023/08/21 03:46:07;;;;;;;7.10;6.40;;;16.60;99.90;;;;;;4827500;29;20061;-66
2023/08/21 03:48:34;;;;;;;8.30;7.43;;;16.60;99.90;;;;;;4822567;29;20046;-75
2023/08/21 03:51:01;;;;;;;7.93;6.35;;;16.60;99.90;;;;;;4816712;29;20658;-68
2023/08/21 03:53:30;;;;;;;7.57;6.85;;;16.60;99.90;;;;;;4821015;29;20093;-62
2023/08/21 03:55:57;;;;;;;6.72;5.45;;;16.60;99.90;;;;;;4825511;29;20256;-65
2023/08/21 03:58:25;;;;;;;7.05;5.85;;;16.60;99.90;;;;;;4821139;29;20066;-62
2023/08/21 04:00:53;;;;;;;7.38;6.43;;;16.60;99.90;;;;;;4822604;29;20058;-67
2023/08/21 04:03:20;;;;;;;7.63;6.90;;;16.60;99.90;;;;;;4815129;29;20141;-69
2023/08/21 04:05:47;;;;;;;7.85;6.88;;;16.60;99.90;;;;;;4826048;29;20042;-69
2023/08/21 04:08:14;;;;;;;6.70;5.78;;;16.60;99.90;;;;;;4824067;29;20050;-65
2023/08/21 04:10:41;;;;;;;6.55;5.93;;;16.60;99.90;;;;;;4826157;29;20069;-64
2023/08/21 04:13:08;;;;;;;6.78;6.00;;;16.70;99.90;;;;;;4825419;29;20046;-65
2023/08/21 04:15:35;;;;;;;6.05;5.45;;;16.70;99.90;;;;;;4828525;29;20080;-69
2023/08/21 04:18:04;;;;;;;7.85;6.95;;;16.70;99.90;;;;;;4825634;29;20041;-70
2023/08/21 04:20:31;;;;;;;5.40;4.57;;;16.70;99.90;;;;;;4828784;29;20413;-70
2023/08/21 04:22:58;;;;;;;5.55;5.05;;;16.70;99.90;;;;;;4807694;29;20157;-65
2023/08/21 04:25:25;;;;;;;6.03;5.43;;;16.70;99.90;;;;;;4830429;29;20095;-66
2023/08/21 04:27:52;;;;;;;5.38;4.65;;;16.80;99.90;;;;;;4826739;29;20508;-68
2023/08/21 04:30:19;;;;;;;6.25;5.65;;;16.80;99.90;;;;;;4824604;29;20428;-65
2023/08/21 04:32:47;;;;;;;6.03;5.53;;;16.80;99.90;;;;;;4824190;29;20119;-68
2023/08/21 04:35:15;;;;;;;4.40;3.95;;;16.80;99.90;;;;;;4825990;29;20054;-65
2023/08/21 04:37:46;;;;;;;5.13;4.53;;;16.90;99.90;;;;;;4827379;29;20581;-68
2023/08/21 04:40:15;;;;;;;5.30;4.90;;;16.90;99.90;;;;;;4824760;29;20081;-70
2023/08/21 04:42:42;;;;;;;4.45;3.80;;;16.90;99.90;;;;;;4821308;29;20145;-71
2023/08/21 04:45:10;;;;;;;4.95;4.47;;;16.90;99.90;;;;;;4826065;29;20500;-61
2023/08/21 04:47:38;;;;;;;5.18;3.60;;;17.00;99.90;;;;;;4822052;29;20103;-66
2023/08/21 04:50:05;;;;;;;3.88;3.55;;;17.00;99.90;;;;;;4824344;29;20052;-67
2023/08/21 04:52:32;;;;;;;4.57;3.25;;;17.00;99.90;;;;;;4809027;29;20108;-64
2023/08/21 04:54:59;;;;;;;6.05;5.55;;;16.90;99.90;;;;;;4823639;29;20537;-64
2023/08/21 04:57:28;;;;;;;8.00;4.28;;;16.90;99.90;;;;;;4822567;29;20051;-71
2023/08/21 04:59:56;;;;;;;4.93;4.43;;;17.00;99.90;;;;;;4816125;29;20374;-68
2023/08/21 05:02:28;;;;;;;5.13;4.72;;;17.00;99.90;;;;;;4821195;29;20058;-65
2023/08/21 05:04:55;;;;;;;5.00;4.55;;;17.00;99.90;;;;;;4823156;29;20838;-67
2023/08/21 05:07:22;;;;;;;3.72;3.42;;;17.00;99.90;;;;;;4807969;29;20661;-68
2023/08/21 05:09:49;;;;;;;5.10;4.07;;;17.00;99.90;;;;;;4823237;29;20069;-67
2023/08/21 05:12:19;;;;;;;5.85;5.35;;;16.90;99.90;;;;;;4822083;29;20114;-71
2023/08/21 05:14:45;;;;;;;5.63;5.05;;;16.90;99.90;;;;;;4822043;29;20055;-63
2023/08/21 05:17:13;;;;;;;5.10;4.70;;;16.90;99.90;;;;;;4828894;29;20089;-65
2023/08/21 05:19:40;;;;;;;6.03;5.40;;;16.90;99.90;;;;;;4822428;29;20066;-64
2023/08/21 05:22:07;;;;;;;6.72;5.05;;;16.90;99.90;;;;;;4824414;29;20074;-67
2023/08/21 05:24:34;;;;;;;5.82;5.32;;;17.00;99.90;;;;;;4823612;29;20069;-62
2023/08/21 05:27:04;;;;;;;6.40;5.80;;;17.00;99.90;;;;;;4821578;29;20289;-67
2023/08/21 05:29:31;;;;;;;5.53;5.03;;;17.00;99.90;;;;;;4814988;29;20876;-63
2023/08/21 05:31:58;;;;;;;5.32;4.82;;;17.00;99.90;;;;;;4827914;29;20497;-70
2023/08/21 05:34:25;;;;;;;6.38;5.85;;;17.00;99.90;;;;;;4826689;29;20417;-66
2023/08/21 05:36:54;;;;;;;5.28;4.85;;;17.00;99.90;;;;;;4819078;29;20065;-71
2023/08/21 05:39:21;;;;;;;5.00;4.60;;;17.00;99.90;;;;;;4823372;29;20103;-71
2023/08/21 05:41:49;;;;;;;5.40;3.83;;;17.00;99.90;;;;;;4822409;29;20069;-70
2023/08/21 05:44:16;;;;;;;4.95;4.40;;;16.90;99.90;;;;;;4823008;29;20544;-63
2023/08/21 05:46:44;;;;;;;4.50;4.10;;;17.00;99.90;;;;;;4824940;29;20054;-64
2023/08/21 05:49:11;;;;;;;4.63;4.22;;;17.00;99.90;;;;;;4825059;29;20111;-67
2023/08/21 05:51:38;;;;;;;6.70;4.35;;;17.10;99.90;;;;;;4826680;29;20046;-60
2023/08/21 05:54:04;;;;;;;4.38;3.97;;;17.10;99.90;;;;;;4822907;29;20071;-72
2023/08/21 05:56:31;;;;;;;5.10;4.60;;;17.00;99.90;;;;;;4822069;29;20740;-64
2023/08/21 05:58:58;;;;;;;4.97;4.57;;;17.10;99.90;;;;;;4818378;29;20060;-62
2023/08/21 06:01:25;;;;;;;6.20;5.60;;;17.10;99.90;;;;;;4823294;29;20058;-71
2023/08/21 06:03:52;;;;;;;7.68;6.85;;;17.10;99.90;;;;;;4822150;29;20125;-65
2023/08/21 06:06:45;;;;;;;9.13;8.23;;;17.10;99.90;;;;;;4824380;29;20050;-71
2023/08/21 06:09:12;;;;;;;9.15;7.55;;;17.10;99.90;;;;;;4814002;29;20512;-66
2023/08/21 06:11:39;;;;;;;10.75;8.52;;;17.10;99.90;;;;;;4816910;29;20070;-64
2023/08/21 06:14:06;;;;;;;9.32;8.07;;;17.10;99.90;;;;;;4821184;29;20065;-72
2023/08/21 06:16:33;;;;;;;7.53;6.82;;;17.20;99.90;;;;;;4828453;29;20060;-74
2023/08/21 06:19:01;;;;;;;9.68;7.38;;;17.20;99.90;;;;;;4818833;29;20065;-64
2023/08/21 06:21:27;;;;;;;11.75;9.40;;;17.20;99.90;;;;;;4831193;29;20045;-68
2023/08/21 06:23:54;;;;;;;9.13;8.23;;;17.20;99.90;;;;;;4824067;29;20399;-65
2023/08/21 06:26:21;;;;;;;9.13;8.15;;;17.20;99.90;;;;;;4827891;29;20050;-64
2023/08/21 06:28:48;;;;;;;11.23;9.70;;;17.20;99.90;;;;;;4827580;29;20126;-73
2023/08/21 06:31:15;;;;;;;11.90;9.20;;;17.10;99.90;;;;;;4829095;29;20129;-65
2023/08/21 06:33:42;;;;;;;8.43;7.60;;;17.20;99.90;;;;;;4824424;29;20050;-68
2023/08/21 06:36:10;;;;;;;11.20;9.98;;;17.20;99.90;;;;;;4825809;29;20050;-65
2023/08/21 06:38:37;;;;;;;11.55;9.70;;;17.20;99.90;;;;;;4824095;29;20058;-66
2023/08/21 06:41:04;;;;;;;9.68;8.65;;;17.30;99.90;;;;;;4829024;29;20133;-62
2023/08/21 06:43:38;;;;;;;11.07;9.55;;;17.30;99.90;;;;;;4826943;29;20054;-70
2023/08/21 06:46:08;;;;;;;13.32;10.13;;;17.40;99.90;;;;;;4826555;29;20651;-62
2023/08/21 06:48:39;;;;;;;11.65;10.23;;;17.40;99.90;;;;;;4825194;29;20458;-63
2023/08/21 06:51:06;;;;;;;13.15;10.13;;;17.40;99.90;;;;;;4825285;29;20038;-71
2023/08/21 06:53:33;;;;;;;11.18;9.57;;;17.40;99.90;;;;;;4827154;29;20110;-68
2023/08/21 06:56:00;;;;;;;11.05;9.10;;;17.40;99.90;;;;;;4829356;29;20049;-62
2023/08/21 06:58:27;;;;;;;11.35;8.95;;;17.40;99.90;;;;;;4826578;29;20062;-67
2023/08/21 07:00:55;;;;;;;12.02;9.15;;;17.40;99.90;;;;;;4825843;29;20053;-61
2023/08/21 07:03:23;;;;;;;11.65;9.57;;;17.40;99.90;;;;;;4826649;29;20054;-68
2023/08/21 07:05:57;;;;;;;48.83;11.05;;;17.40;99.90;;;;;;4826092;29;20267;-67
2023/08/21 07:08:24;;;;;;;19.00;7.15;;;17.30;99.90;;;;;;4826625;29;20078;-61
2023/08/21 07:10:52;;;;;;;6.22;5.63;;;17.20;99.90;;;;;;4832172;29;20062;-63
2023/08/21 07:13:19;;;;;;;7.07;5.45;;;17.20;99.90;;;;;;4827111;29;20107;-65
2023/08/21 07:15:47;;;;;;;6.13;5.53;;;17.20;99.90;;;;;;4824006;29;20137;-62
2023/08/21 07:18:14;;;;;;;7.35;6.63;;;17.20;99.90;;;;;;4828751;29;20042;-66
2023/08/21 07:20:41;;;;;;;7.25;6.53;;;17.10;99.90;;;;;;4826689;29;20075;-65
2023/08/21 07:23:08;;;;;;;7.03;5.82;;;17.10;99.90;;;;;;4829760;29;20050;-66
2023/08/21 07:25:35;;;;;;;5.70;5.15;;;17.00;99.90;;;;;;4827985;29;20122;-67
2023/08/21 07:28:02;;;;;;;6.15;5.55;;;17.00;99.90;;;;;;4825439;29;20050;-65
2023/08/21 07:30:29;;;;;;;6.13;5.55;;;17.00;99.90;;;;;;4828186;29;20141;-64
2023/08/21 07:32:56;;;;;;;6.47;5.88;;;17.00;99.90;;;;;;4827385;29;20056;-64
2023/08/21 07:35:23;;;;;;;6.90;6.20;;;17.00;99.90;;;;;;4823846;29;20149;-68
2023/08/21 07:37:50;;;;;;;8.27;7.57;;;17.00;99.90;;;;;;4826884;29;20054;-73
2023/08/21 07:40:17;;;;;;;7.88;6.35;;;17.10;99.90;;;;;;4827054;29;20052;-67
2023/08/21 07:42:44;;;;;;;8.70;7.55;;;17.10;99.90;;;;;;4827424;29;20413;-69
2023/08/21 07:45:11;;;;;;;7.30;6.13;;;17.20;99.90;;;;;;4824147;29;20509;-63
2023/08/21 07:47:38;;;;;;;7.43;6.72;;;17.20;99.90;;;;;;4830117;29;20042;-69
2023/08/21 07:50:08;;;;;;;6.43;5.78;;;17.30;99.90;;;;;;4824208;29;20085;-68
2023/08/21 07:52:36;;;;;;;8.88;7.30;;;17.30;99.90;;;;;;4828395;29;20052;-65
2023/08/21 07:55:04;;;;;;;8.05;6.30;;;17.40;99.90;;;;;;4822899;29;20080;-63
2023/08/21 07:57:31;;;;;;;8.07;6.47;;;17.40;99.90;;;;;;4825611;29;20136;-68
2023/08/21 07:59:58;;;;;;;7.63;6.93;;;17.50;99.90;;;;;;4823962;29;20054;-68
2023/08/21 08:02:25;;;;;;;6.72;6.03;;;17.50;99.90;;;;;;4826041;29;20050;-63
2023/08/21 08:04:52;;;;;;;8.68;7.82;;;17.60;99.90;;;;;;4824708;29;20057;-65
2023/08/21 08:07:19;;;;;;;7.45;5.72;;;17.60;99.90;;;;;;4826341;29;20046;-66
2023/08/21 08:09:46;;;;;;;7.97;7.18;;;17.70;99.90;;;;;;4827302;29;20061;-62
2023/08/21 08:12:14;;;;;;;6.85;6.15;;;17.80;99.90;;;;;;4826351;29;20507;-64
2023/08/21 08:14:40;;;;;;;9.20;6.68;;;17.90;99.90;;;;;;4822472;29;20050;-64
2023/08/21 08:17:07;;;;;;;7.80;7.13;;;18.00;99.90;;;;;;4828574;29;20046;-67
2023/08/21 08:19:34;;;;;;;6.18;5.57;;;18.00;99.90;;;;;;4826371;29;20054;-65
2023/08/21 08:22:01;;;;;;;7.80;7.00;;;18.00;99.90;;;;;;4825404;29;20175;-68
2023/08/21 08:24:28;;;;;;;8.35;5.88;;;18.20;99.90;;;;;;4824965;29;20493;-72
2023/08/21 08:26:55;;;;;;;5.97;5.38;;;18.20;99.90;;;;;;4825204;29;20124;-67
2023/08/21 08:29:22;;;;;;;6.30;5.28;;;18.30;99.90;;;;;;4829823;29;20488;-65
2023/08/21 08:31:49;;;;;;;6.82;4.40;;;18.30;99.90;;;;;;4825091;29;20049;-69
2023/08/21 08:34:20;;;;;;;5.55;5.05;;;18.20;99.90;;;;;;4828006;29;20129;-66
2023/08/21 08:36:47;;;;;;;6.80;6.10;;;18.30;99.90;;;;;;4827896;29;20076;-62
2023/08/21 08:39:14;;;;;;;7.22;6.53;;;18.30;99.90;;;;;;4824862;29;20061;-70
2023/08/21 08:41:55;;;;;;;6.22;5.60;;;18.40;99.90;;;;;;4828005;29;20056;-69
2023/08/21 08:44:25;;;;;;;5.45;4.88;;;18.50;99.90;;;;;;4825487;29;20068;-72
2023/08/21 08:46:53;;;;;;;12.18;6.47;;;18.60;99.90;;;;;;4824115;29;20050;-65
2023/08/21 08:49:21;;;;;;;8.32;6.95;;;18.60;99.90;;;;;;4828101;29;20075;-66
2023/08/21 08:51:51;;;;;;;13.02;5.63;;;18.50;99.90;;;;;;4827420;29;20547;-70
2023/08/21 08:54:19;;;;;;;5.40;4.90;;;18.50;99.90;;;;;;4822072;29;20046;-64
2023/08/21 08:56:46;;;;;;;4.57;3.80;;;18.50;99.90;;;;;;4829978;29;20297;-62
2023/08/21 08:59:15;;;;;;;5.72;3.58;;;18.40;99.90;;;;;;4824627;29;20497;-61
2023/08/21 09:01:43;;;;;;;4.53;3.63;;;18.50;99.90;;;;;;4823491;29;20046;-72
2023/08/21 09:04:10;;;;;;;7.25;3.63;;;18.50;99.90;;;;;;4822030;29;20502;-70
2023/08/21 09:06:38;;;;;;;7.00;4.03;;;18.60;99.90;;;;;;4825987;29;20046;-71
2023/08/21 09:09:07;;;;;;;4.95;3.53;;;18.50;99.90;;;;;;4827196;29;20058;-66
2023/08/21 09:11:34;;;;;;;5.00;4.00;;;18.60;99.90;;;;;;4825180;29;20089;-65
2023/08/21 09:14:01;;;;;;;10.95;4.30;;;18.70;99.90;;;;;;4824879;29;20110;-67
2023/08/21 09:16:28;;;;;;;34.10;6.20;;;18.70;99.90;;;;;;4824678;29;20073;-66
2023/08/21 09:18:56;;;;;;;13.63;4.60;;;18.60;99.90;;;;;;4823062;29;20050;-67
2023/08/21 09:21:25;;;;;;;13.07;4.80;;;18.60;99.90;;;;;;4826051;29;20041;-63
2023/08/21 09:24:05;;;;;;;12.73;4.47;;;18.50;99.90;;;;;;4825941;29;20283;-65
2023/08/21 09:26:32;;;;;;;4.43;3.65;;;18.50;99.90;;;;;;4828308;29;20099;-71
2023/08/21 09:29:01;;;;;;;5.13;4.00;;;18.40;99.90;;;;;;4826780;29;20147;-71
2023/08/21 09:31:33;;;;;;;5.70;4.32;;;18.60;99.90;;;;;;4829784;29;20062;-64
2023/08/21 09:34:04;;;;;;;5.20;4.70;;;18.70;99.90;;;;;;4829611;29;20060;-66
2023/08/21 09:36:33;;;;;;;5.75;4.32;;;18.80;99.90;;;;;;4827975;29;20058;-70
2023/08/21 09:39:00;;;;;;;7.57;4.72;;;18.90;99.90;;;;;;4824886;29;20054;-69
2023/08/21 09:41:27;;;;;;;5.63;4.50;;;18.90;99.90;;;;;;4827267;29;20049;-68
2023/08/21 09:43:59;;;;;;;5.05;4.15;;;19.00;99.90;;;;;;4821174;29;20103;-70
2023/08/21 09:46:27;;;;;;;4.78;4.07;;;19.10;99.90;;;;;;4824984;29;20046;-74
2023/08/21 09:48:55;;;;;;;4.47;3.92;;;19.20;99.90;;;;;;4824772;29;20072;-72
2023/08/21 09:51:22;;;;;;;5.32;4.82;;;19.30;99.90;;;;;;4823968;29;20129;-70
2023/08/21 09:53:49;;;;;;;5.10;4.10;;;19.40;99.90;;;;;;4823688;29;20088;-70
2023/08/21 09:56:18;;;;;;;5.65;4.47;;;19.30;99.90;;;;;;4824340;29;20046;-69
2023/08/21 09:58:48;;;;;;;3.88;3.47;;;19.20;99.90;;;;;;4819236;29;20137;-64
2023/08/21 10:01:17;;;;;;;3.97;3.53;;;19.10;99.90;;;;;;4822045;29;20474;-66
2023/08/21 10:03:47;;;;;;;3.20;2.90;;;19.10;99.90;;;;;;4824793;29;20164;-68
2023/08/21 10:06:18;;;;;;;4.32;3.92;;;19.20;99.90;;;;;;4822701;29;20489;-62
2023/08/21 10:08:52;;;;;;;3.80;3.40;;;19.20;99.90;;;;;;4825387;29;20058;-63
2023/08/21 10:11:20;;;;;;;4.00;2.83;;;19.30;99.90;;;;;;4824595;29;20066;-63
2023/08/21 10:13:50;;;;;;;6.07;3.97;;;19.40;99.90;;;;;;4822244;29;20124;-73
2023/08/21 10:16:18;;;;;;;4.40;4.00;;;19.30;99.90;;;;;;4821511;29;20054;-62
2023/08/21 10:18:45;;;;;;;10.20;4.28;;;19.50;99.90;;;;;;4826965;29;20405;-67
2023/08/21 10:21:20;;;;;;;3.28;2.97;;;19.20;99.90;;;;;;4824719;29;20066;-65
2023/08/21 10:23:48;;;;;;;4.10;3.15;;;19.10;99.90;;;;;;4824226;29;20054;-62
2023/08/21 10:26:19;;;;;;;3.42;3.13;;;19.20;99.90;;;;;;4826215;29;20050;-63
2023/08/21 10:28:54;;;;;;;4.68;3.67;;;19.20;99.90;;;;;;4822871;29;20038;-67
2023/08/21 10:31:39;;;;;;;5.88;4.18;;;19.10;99.90;;;;;;4827605;29;20038;-63
2023/08/21 10:34:13;;;;;;;4.90;3.78;;;19.20;99.90;;;;;;4818267;29;20053;-64
2023/08/21 10:36:43;;;;;;;5.90;5.03;;;19.10;99.90;;;;;;4826342;29;20077;-67
2023/08/21 10:39:25;;;;;;;9.93;6.82;;;19.00;99.90;;;;;;4824585;29;20383;-68
2023/08/21 10:42:00;;;;;;;7.75;5.57;;;19.10;99.90;;;;;;4820515;29;20053;-64
2023/08/21 10:44:51;;;;;;;6.03;3.88;;;19.10;99.90;;;;;;4825910;29;20050;-62
2023/08/21 10:47:19;;;;;;;5.80;4.75;;;19.20;99.90;;;;;;4820902;29;20311;-65
2023/08/21 10:49:48;;;;;;;5.25;3.25;;;19.10;99.90;;;;;;4825334;29;20490;-64
2023/08/21 10:52:30;;;;;;;5.40;4.68;;;19.10;99.90;;;;;;4825970;29;20074;-64
2023/08/21 10:54:59;;;;;;;3.63;3.33;;;19.10;99.90;;;;;;4825480;29;20050;-63
2023/08/21 10:57:28;;;;;;;3.92;3.22;;;19.10;99.90;;;;;;4824351;29;20054;-68
2023/08/21 11:00:00;;;;;;;2.92;2.65;;;19.10;99.90;;;;;;4824058;29;20046;-65
2023/08/21 11:02:29;;;;;;;3.35;2.90;;;19.20;99.90;;;;;;4821889;29;20061;-65
2023/08/21 11:04:56;;;;;;;3.97;3.58;;;19.00;99.90;;;;;;4825548;29;20042;-66
2023/08/21 11:07:24;;;;;;;4.07;3.67;;;18.60;99.90;;;;;;4829123;29;20049;-66
2023/08/21 11:09:52;;;;;;;19.85;3.45;;;18.40;99.90;;;;;;4827848;29;20584;-66
2023/08/21 11:12:23;;;;;;;7.25;4.32;;;18.10;99.90;;;;;;4827288;29;20089;-66
2023/08/21 11:14:50;;;;;;;5.78;4.07;;;18.00;99.90;;;;;;4829599;29;20066;-68
2023/08/21 11:17:20;;;;;;;4.82;3.72;;;18.10;99.90;;;;;;4830025;29;20050;-68
2023/08/21 11:19:51;;;;;;;3.45;3.15;;;18.10;99.90;;;;;;4829098;29;20153;-65
2023/08/21 11:22:18;;;;;;;2.95;2.70;;;18.10;99.90;;;;;;4829632;29;20217;-66
2023/08/21 11:24:50;;;;;;;5.65;2.85;;;18.30;99.90;;;;;;4828225;29;20046;-62
2023/08/21 11:27:18;;;;;;;4.53;3.88;;;18.40;99.90;;;;;;4826444;29;20046;-64
2023/08/21 11:29:47;;;;;;;4.65;4.15;;;18.20;99.90;;;;;;4829303;29;20069;-70
2023/08/21 11:32:22;;;;;;;13.10;5.05;;;18.30;99.90;;;;;;4826867;29;20127;-71
2023/08/21 11:34:51;;;;;;;7.18;4.22;;;18.20;99.90;;;;;;4829088;29;20140;-68
2023/08/21 11:37:19;;;;;;;5.72;4.63;;;18.20;99.90;;;;;;4828310;29;20829;-65
2023/08/21 11:39:49;;;;;;;5.57;3.90;;;18.20;99.90;;;;;;4824043;29;20073;-63
2023/08/21 11:42:16;;;;;;;5.68;3.78;;;18.30;99.90;;;;;;4828384;29;20792;-69
2023/08/21 11:44:45;;;;;;;4.70;4.05;;;18.20;99.90;;;;;;4825432;29;20132;-67
2023/08/21 11:47:13;;;;;;;4.63;4.18;;;18.00;99.90;;;;;;4820962;29;20070;-66
2023/08/21 11:49:42;;;;;;;5.40;4.32;;;18.10;99.90;;;;;;4825998;29;20046;-67
2023/08/21 11:52:10;;;;;;;6.30;4.50;;;18.10;99.90;;;;;;4826140;29;20065;-68
2023/08/21 11:54:40;;;;;;;4.93;4.38;;;18.00;99.90;;;;;;4823544;29;20042;-69
2023/08/21 11:57:09;;;;;;;5.70;4.55;;;18.00;99.90;;;;;;4818460;29;20853;-70
2023/08/21 11:59:36;;;;;;;5.72;5.22;;;18.10;99.90;;;;;;4824654;29;20058;-66
2023/08/21 12:02:23;;;;;;;4.68;4.22;;;18.20;99.90;;;;;;4824888;29;20441;-69
2023/08/21 12:05:06;;;;;;;6.03;4.88;;;18.20;99.90;;;;;;4822504;29;20050;-62
2023/08/21 12:07:33;;;;;;;6.93;4.03;;;18.50;99.90;;;;;;4828502;29;20080;-66
2023/08/21 12:10:00;;;;;;;5.47;4.28;;;18.70;99.90;;;;;;4826381;29;20057;-69
2023/08/21 12:12:27;;;;;;;5.35;4.28;;;18.70;99.90;;;;;;4822570;29;20059;-68
2023/08/21 12:14:54;;;;;;;4.53;4.10;;;18.80;99.90;;;;;;4824375;29;20050;-65
2023/08/21 12:17:21;;;;;;;4.82;4.13;;;19.00;99.90;;;;;;4828089;29;20683;-67
2023/08/21 12:19:48;;;;;;;4.47;4.07;;;19.10;99.90;;;;;;4824484;29;20053;-62
2023/08/21 12:22:15;;;;;;;3.60;3.30;;;19.30;99.90;;;;;;4825144;29;20049;-64
2023/08/21 12:24:42;;;;;;;9.05;3.25;;;19.20;99.90;;;;;;4827914;29;20077;-65
2023/08/21 12:27:09;;;;;;;4.13;2.88;;;19.30;99.90;;;;;;4824590;29;20042;-65
2023/08/21 12:29:36;;;;;;;4.57;3.35;;;19.30;99.90;;;;;;4828376;29;20052;-64
2023/08/21 12:32:03;;;;;;;3.80;3.35;;;19.50;99.90;;;;;;4829125;29;20568;-68
2023/08/21 12:34:30;;;;;;;3.55;3.25;;;19.50;99.90;;;;;;4828498;29;20042;-62
2023/08/21 12:36:57;;;;;;;6.00;3.25;;;19.50;99.90;;;;;;4828248;29;20038;-62
2023/08/21 12:39:24;;;;;;;4.38;3.60;;;19.60;99.90;;;;;;4821947;29;20102;-70
2023/08/21 12:41:50;;;;;;;2.92;2.63;;;19.70;99.90;;;;;;4827202;29;20584;-69
2023/08/21 12:44:17;;;;;;;5.55;3.47;;;19.90;99.90;;;;;;4823299;29;20069;-68
2023/08/21 12:46:44;;;;;;;6.18;3.42;;;20.00;99.90;;;;;;4824889;29;20138;-64
2023/08/21 12:49:12;;;;;;;4.68;3.97;;;20.00;99.90;;;;;;4827972;29;20058;-66
2023/08/21 12:51:39;;;;;;;3.35;3.05;;;19.90;99.90;;;;;;4824114;29;20054;-63